sensor_id;sensor_type;location;lat;lon;timestamp;P1;durP1;ratioP1;P2;durP2;ratioP2
71671;SDS011;62112;45.638;11.714;2022-09-03T00:00:07;5.77;;;3.07;;
71671;SDS011;62112;45.638;11.714;2022-09-03T00:08:43;5.45;;;3.10;;
71671;SDS011;62112;45.638;11.714;2022-09-03T00:11:17;6.05;;;3.10;;
71671;SDS011;62112;45.638;11.714;2022-09-03T00:13:58;6.07;;;3.07;;
71671;SDS011;62112;45.638;11.714;2022-09-03T00:16:34;5.60;;;3.00;;
71671;SDS011;62112;45.638;11.714;2022-09-03T00:19:29;6.13;;;3.22;;
71671;SDS011;62112;45.638;11.714;2022-09-03T00:22:14;5.35;;;3.20;;
71671;SDS011;62112;45.638;11.714;2022-09-03T00:24:43;6.70;;;3.13;;
71671;SDS011;62112;45.638;11.714;2022-09-03T00:27:15;5.80;;;3.17;;
71671;SDS011;62112;45.638;11.714;2022-09-03T00:29:54;5.53;;;2.90;;
71671;SDS011;62112;45.638;11.714;2022-09-03T00:32:45;5.55;;;3.30;;
71671;SDS011;62112;45.638;11.714;2022-09-03T00:35:19;5.38;;;2.90;;
71671;SDS011;62112;45.638;11.714;2022-09-03T00:37:51;5.55;;;3.00;;
71671;SDS011;62112;45.638;11.714;2022-09-03T00:52:12;6.60;;;3.33;;
71671;SDS011;62112;45.638;11.714;2022-09-03T00:54:55;5.33;;;3.10;;
71671;SDS011;62112;45.638;11.714;2022-09-03T00:57:35;5.50;;;3.30;;
71671;SDS011;62112;45.638;11.714;2022-09-03T01:00:11;4.95;;;2.80;;
71671;SDS011;62112;45.638;11.714;2022-09-03T01:07:57;5.37;;;3.00;;
71671;SDS011;62112;45.638;11.714;2022-09-03T01:10:55;6.03;;;3.20;;
71671;SDS011;62112;45.638;11.714;2022-09-03T01:13:35;5.68;;;3.30;;
71671;SDS011;62112;45.638;11.714;2022-09-03T01:30:22;6.22;;;3.15;;
71671;SDS011;62112;45.638;11.714;2022-09-03T01:33:04;6.53;;;3.40;;
71671;SDS011;62112;45.638;11.714;2022-09-03T01:35:52;5.93;;;3.00;;
71671;SDS011;62112;45.638;11.714;2022-09-03T01:46:53;5.47;;;3.00;;
71671;SDS011;62112;45.638;11.714;2022-09-03T01:49:33;6.20;;;3.30;;
71671;SDS011;62112;45.638;11.714;2022-09-03T01:55:11;6.25;;;3.10;;
71671;SDS011;62112;45.638;11.714;2022-09-03T01:57:59;6.15;;;3.35;;
71671;SDS011;62112;45.638;11.714;2022-09-03T02:00:31;6.18;;;3.30;;
71671;SDS011;62112;45.638;11.714;2022-09-03T02:03:00;5.30;;;2.90;;
71671;SDS011;62112;45.638;11.714;2022-09-03T02:05:31;5.00;;;3.08;;
71671;SDS011;62112;45.638;11.714;2022-09-03T02:08:03;5.20;;;3.10;;
71671;SDS011;62112;45.638;11.714;2022-09-03T02:10:39;5.40;;;3.22;;
71671;SDS011;62112;45.638;11.714;2022-09-03T02:13:37;5.57;;;3.10;;
71671;SDS011;62112;45.638;11.714;2022-09-03T02:16:14;5.07;;;2.97;;
71671;SDS011;62112;45.638;11.714;2022-09-03T02:18:51;5.47;;;3.20;;
71671;SDS011;62112;45.638;11.714;2022-09-03T02:21:22;5.95;;;3.30;;
71671;SDS011;62112;45.638;11.714;2022-09-03T02:23:49;4.90;;;2.72;;
71671;SDS011;62112;45.638;11.714;2022-09-03T02:26:17;5.57;;;3.30;;
71671;SDS011;62112;45.638;11.714;2022-09-03T02:28:46;6.23;;;3.10;;
71671;SDS011;62112;45.638;11.714;2022-09-03T02:31:13;5.60;;;3.08;;
71671;SDS011;62112;45.638;11.714;2022-09-03T02:33:40;5.75;;;2.90;;
71671;SDS011;62112;45.638;11.714;2022-09-03T02:36:10;6.03;;;3.10;;
71671;SDS011;62112;45.638;11.714;2022-09-03T02:38:39;5.90;;;2.90;;
71671;SDS011;62112;45.638;11.714;2022-09-03T02:41:06;6.03;;;2.90;;
71671;SDS011;62112;45.638;11.714;2022-09-03T02:46:08;4.93;;;2.70;;
71671;SDS011;62112;45.638;11.714;2022-09-03T02:48:38;6.10;;;3.13;;
71671;SDS011;62112;45.638;11.714;2022-09-03T02:51:03;5.03;;;3.00;;
71671;SDS011;62112;45.638;11.714;2022-09-03T02:53:29;5.60;;;3.33;;
71671;SDS011;62112;45.638;11.714;2022-09-03T02:55:59;5.10;;;3.40;;
71671;SDS011;62112;45.638;11.714;2022-09-03T02:58:25;5.47;;;3.00;;
71671;SDS011;62112;45.638;11.714;2022-09-03T03:00:52;6.07;;;3.63;;
71671;SDS011;62112;45.638;11.714;2022-09-03T03:03:18;5.75;;;3.30;;
71671;SDS011;62112;45.638;11.714;2022-09-03T03:05:44;5.30;;;3.30;;
71671;SDS011;62112;45.638;11.714;2022-09-03T03:08:14;5.15;;;3.00;;
71671;SDS011;62112;45.638;11.714;2022-09-03T03:10:41;4.82;;;2.80;;
71671;SDS011;62112;45.638;11.714;2022-09-03T03:13:10;5.03;;;2.83;;
71671;SDS011;62112;45.638;11.714;2022-09-03T03:15:37;5.00;;;3.15;;
71671;SDS011;62112;45.638;11.714;2022-09-03T03:18:03;5.50;;;2.90;;
71671;SDS011;62112;45.638;11.714;2022-09-03T03:20:29;5.07;;;2.95;;
71671;SDS011;62112;45.638;11.714;2022-09-03T03:22:55;5.32;;;3.10;;
71671;SDS011;62112;45.638;11.714;2022-09-03T03:25:21;6.15;;;2.80;;
71671;SDS011;62112;45.638;11.714;2022-09-03T03:27:47;5.10;;;3.00;;
71671;SDS011;62112;45.638;11.714;2022-09-03T03:30:13;5.10;;;2.80;;
71671;SDS011;62112;45.638;11.714;2022-09-03T03:32:39;4.97;;;2.87;;
71671;SDS011;62112;45.638;11.714;2022-09-03T03:35:05;5.90;;;3.00;;
71671;SDS011;62112;45.638;11.714;2022-09-03T03:37:31;5.15;;;3.00;;
71671;SDS011;62112;45.638;11.714;2022-09-03T03:39:59;4.93;;;2.90;;
71671;SDS011;62112;45.638;11.714;2022-09-03T03:42:25;4.90;;;2.97;;
71671;SDS011;62112;45.638;11.714;2022-09-03T03:44:51;4.43;;;2.70;;
71671;SDS011;62112;45.638;11.714;2022-09-03T03:47:17;4.90;;;2.80;;
71671;SDS011;62112;45.638;11.714;2022-09-03T03:49:43;5.57;;;3.10;;
71671;SDS011;62112;45.638;11.714;2022-09-03T03:52:09;5.38;;;2.90;;
71671;SDS011;62112;45.638;11.714;2022-09-03T03:54:35;4.63;;;2.80;;
71671;SDS011;62112;45.638;11.714;2022-09-03T03:57:01;4.85;;;2.75;;
71671;SDS011;62112;45.638;11.714;2022-09-03T03:59:27;4.70;;;2.90;;
71671;SDS011;62112;45.638;11.714;2022-09-03T04:01:53;5.38;;;2.90;;
71671;SDS011;62112;45.638;11.714;2022-09-03T04:04:19;4.95;;;3.00;;
71671;SDS011;62112;45.638;11.714;2022-09-03T04:06:45;4.80;;;2.90;;
71671;SDS011;62112;45.638;11.714;2022-09-03T04:09:11;5.32;;;3.03;;
71671;SDS011;62112;45.638;11.714;2022-09-03T04:11:36;4.38;;;2.60;;
71671;SDS011;62112;45.638;11.714;2022-09-03T04:14:03;5.73;;;2.97;;
71671;SDS011;62112;45.638;11.714;2022-09-03T04:16:29;5.20;;;2.90;;
71671;SDS011;62112;45.638;11.714;2022-09-03T04:18:56;5.05;;;2.75;;
71671;SDS011;62112;45.638;11.714;2022-09-03T04:21:26;4.75;;;2.70;;
71671;SDS011;62112;45.638;11.714;2022-09-03T04:23:53;4.72;;;2.80;;
71671;SDS011;62112;45.638;11.714;2022-09-03T04:26:24;4.97;;;2.93;;
71671;SDS011;62112;45.638;11.714;2022-09-03T04:28:58;4.55;;;2.80;;
71671;SDS011;62112;45.638;11.714;2022-09-03T04:31:25;4.93;;;2.72;;
71671;SDS011;62112;45.638;11.714;2022-09-03T04:36:31;4.40;;;2.50;;
71671;SDS011;62112;45.638;11.714;2022-09-03T04:39:00;4.32;;;2.50;;
71671;SDS011;62112;45.638;11.714;2022-09-03T04:41:27;4.55;;;2.72;;
71671;SDS011;62112;45.638;11.714;2022-09-03T04:43:54;4.72;;;2.70;;
71671;SDS011;62112;45.638;11.714;2022-09-03T04:46:22;5.00;;;2.80;;
71671;SDS011;62112;45.638;11.714;2022-09-03T04:48:57;4.43;;;2.50;;
71671;SDS011;62112;45.638;11.714;2022-09-03T04:51:24;4.40;;;2.53;;
71671;SDS011;62112;45.638;11.714;2022-09-03T04:53:55;5.00;;;2.70;;
71671;SDS011;62112;45.638;11.714;2022-09-03T04:56:30;4.28;;;2.50;;
71671;SDS011;62112;45.638;11.714;2022-09-03T04:59:01;4.80;;;2.60;;
71671;SDS011;62112;45.638;11.714;2022-09-03T05:01:30;5.67;;;2.90;;
71671;SDS011;62112;45.638;11.714;2022-09-03T05:03:57;4.70;;;2.70;;
71671;SDS011;62112;45.638;11.714;2022-09-03T05:06:24;4.53;;;2.33;;
71671;SDS011;62112;45.638;11.714;2022-09-03T05:08:51;4.95;;;2.72;;
71671;SDS011;62112;45.638;11.714;2022-09-03T05:11:18;5.22;;;2.83;;
71671;SDS011;62112;45.638;11.714;2022-09-03T05:13:48;4.83;;;2.80;;
71671;SDS011;62112;45.638;11.714;2022-09-03T05:16:16;4.45;;;2.53;;
71671;SDS011;62112;45.638;11.714;2022-09-03T05:18:43;4.50;;;2.38;;
71671;SDS011;62112;45.638;11.714;2022-09-03T05:21:11;4.55;;;2.63;;
71671;SDS011;62112;45.638;11.714;2022-09-03T05:23:39;4.50;;;2.70;;
71671;SDS011;62112;45.638;11.714;2022-09-03T05:26:10;4.70;;;2.70;;
71671;SDS011;62112;45.638;11.714;2022-09-03T05:28:38;4.72;;;2.65;;
71671;SDS011;62112;45.638;11.714;2022-09-03T05:33:35;4.32;;;2.45;;
71671;SDS011;62112;45.638;11.714;2022-09-03T05:36:03;5.35;;;2.75;;
71671;SDS011;62112;45.638;11.714;2022-09-03T05:38:31;4.97;;;2.60;;
71671;SDS011;62112;45.638;11.714;2022-09-03T05:40:58;4.45;;;2.80;;
71671;SDS011;62112;45.638;11.714;2022-09-03T05:43:25;4.70;;;2.70;;
71671;SDS011;62112;45.638;11.714;2022-09-03T05:45:55;4.60;;;2.50;;
71671;SDS011;62112;45.638;11.714;2022-09-03T05:48:23;4.88;;;2.80;;
71671;SDS011;62112;45.638;11.714;2022-09-03T05:50:48;4.47;;;2.57;;
71671;SDS011;62112;45.638;11.714;2022-09-03T05:53:22;4.95;;;2.88;;
71671;SDS011;62112;45.638;11.714;2022-09-03T05:55:53;4.63;;;2.65;;
71671;SDS011;62112;45.638;11.714;2022-09-03T05:58:24;5.67;;;2.70;;
71671;SDS011;62112;45.638;11.714;2022-09-03T06:00:54;4.88;;;2.70;;
71671;SDS011;62112;45.638;11.714;2022-09-03T06:03:20;4.22;;;2.50;;
71671;SDS011;62112;45.638;11.714;2022-09-03T06:05:49;5.07;;;2.90;;
71671;SDS011;62112;45.638;11.714;2022-09-03T06:08:19;4.80;;;2.73;;
71671;SDS011;62112;45.638;11.714;2022-09-03T06:10:46;5.05;;;2.80;;
71671;SDS011;62112;45.638;11.714;2022-09-03T06:13:12;5.80;;;2.90;;
71671;SDS011;62112;45.638;11.714;2022-09-03T06:15:38;4.55;;;2.80;;
71671;SDS011;62112;45.638;11.714;2022-09-03T06:18:04;4.60;;;2.70;;
71671;SDS011;62112;45.638;11.714;2022-09-03T06:20:30;5.15;;;2.80;;
71671;SDS011;62112;45.638;11.714;2022-09-03T06:22:56;6.50;;;2.78;;
71671;SDS011;62112;45.638;11.714;2022-09-03T06:25:23;4.28;;;2.63;;
71671;SDS011;62112;45.638;11.714;2022-09-03T06:27:49;5.07;;;2.78;;
71671;SDS011;62112;45.638;11.714;2022-09-03T06:30:15;4.97;;;2.90;;
71671;SDS011;62112;45.638;11.714;2022-09-03T06:32:44;4.47;;;2.72;;
71671;SDS011;62112;45.638;11.714;2022-09-03T06:35:10;4.88;;;2.60;;
71671;SDS011;62112;45.638;11.714;2022-09-03T06:37:39;5.00;;;2.88;;
71671;SDS011;62112;45.638;11.714;2022-09-03T06:40:06;4.60;;;2.60;;
71671;SDS011;62112;45.638;11.714;2022-09-03T06:42:40;4.63;;;2.80;;
71671;SDS011;62112;45.638;11.714;2022-09-03T06:45:07;4.40;;;2.60;;
71671;SDS011;62112;45.638;11.714;2022-09-03T06:47:34;4.45;;;2.78;;
71671;SDS011;62112;45.638;11.714;2022-09-03T06:50:00;5.53;;;2.90;;
71671;SDS011;62112;45.638;11.714;2022-09-03T06:52:26;4.32;;;2.58;;
71671;SDS011;62112;45.638;11.714;2022-09-03T06:54:54;4.53;;;2.50;;
71671;SDS011;62112;45.638;11.714;2022-09-03T06:57:20;4.57;;;2.63;;
71671;SDS011;62112;45.638;11.714;2022-09-03T06:59:46;4.85;;;2.70;;
71671;SDS011;62112;45.638;11.714;2022-09-03T07:02:13;4.57;;;2.50;;
71671;SDS011;62112;45.638;11.714;2022-09-03T07:04:39;5.07;;;2.70;;
71671;SDS011;62112;45.638;11.714;2022-09-03T07:07:05;4.60;;;2.63;;
71671;SDS011;62112;45.638;11.714;2022-09-03T07:09:37;4.43;;;2.63;;
71671;SDS011;62112;45.638;11.714;2022-09-03T07:12:03;4.50;;;2.60;;
71671;SDS011;62112;45.638;11.714;2022-09-03T07:14:30;6.00;;;2.55;;
71671;SDS011;62112;45.638;11.714;2022-09-03T07:16:56;5.47;;;2.70;;
71671;SDS011;62112;45.638;11.714;2022-09-03T07:19:22;5.80;;;2.65;;
71671;SDS011;62112;45.638;11.714;2022-09-03T07:21:48;4.53;;;2.60;;
71671;SDS011;62112;45.638;11.714;2022-09-03T07:24:14;5.45;;;2.70;;
71671;SDS011;62112;45.638;11.714;2022-09-03T07:26:40;5.65;;;2.78;;
71671;SDS011;62112;45.638;11.714;2022-09-03T07:29:12;5.40;;;2.70;;
71671;SDS011;62112;45.638;11.714;2022-09-03T07:31:40;5.43;;;2.77;;
71671;SDS011;62112;45.638;11.714;2022-09-03T07:34:08;5.20;;;2.40;;
71671;SDS011;62112;45.638;11.714;2022-09-03T07:36:37;4.55;;;2.30;;
71671;SDS011;62112;45.638;11.714;2022-09-03T07:39:05;4.63;;;2.40;;
71671;SDS011;62112;45.638;11.714;2022-09-03T07:41:31;4.80;;;2.42;;
71671;SDS011;62112;45.638;11.714;2022-09-03T07:43:58;4.83;;;2.50;;
71671;SDS011;62112;45.638;11.714;2022-09-03T07:46:29;4.22;;;2.40;;
71671;SDS011;62112;45.638;11.714;2022-09-03T07:48:57;5.57;;;2.50;;
71671;SDS011;62112;45.638;11.714;2022-09-03T07:51:26;4.90;;;2.53;;
71671;SDS011;62112;45.638;11.714;2022-09-03T07:53:54;4.45;;;2.42;;
71671;SDS011;62112;45.638;11.714;2022-09-03T07:56:22;4.90;;;2.53;;
71671;SDS011;62112;45.638;11.714;2022-09-03T07:58:50;4.30;;;2.40;;
71671;SDS011;62112;45.638;11.714;2022-09-03T08:01:20;4.97;;;2.60;;
71671;SDS011;62112;45.638;11.714;2022-09-03T08:03:48;4.65;;;2.60;;
71671;SDS011;62112;45.638;11.714;2022-09-03T08:06:21;4.70;;;2.33;;
71671;SDS011;62112;45.638;11.714;2022-09-03T08:08:53;4.40;;;2.50;;
71671;SDS011;62112;45.638;11.714;2022-09-03T08:11:24;4.25;;;2.50;;
71671;SDS011;62112;45.638;11.714;2022-09-03T08:13:55;4.32;;;2.30;;
71671;SDS011;62112;45.638;11.714;2022-09-03T08:16:26;4.68;;;2.40;;
71671;SDS011;62112;45.638;11.714;2022-09-03T08:18:56;4.57;;;2.50;;
71671;SDS011;62112;45.638;11.714;2022-09-03T08:21:23;5.37;;;2.53;;
71671;SDS011;62112;45.638;11.714;2022-09-03T08:23:50;5.00;;;2.80;;
71671;SDS011;62112;45.638;11.714;2022-09-03T08:26:19;6.38;;;2.58;;
71671;SDS011;62112;45.638;11.714;2022-09-03T08:28:45;5.15;;;2.50;;
71671;SDS011;62112;45.638;11.714;2022-09-03T08:31:16;5.75;;;2.75;;
71671;SDS011;62112;45.638;11.714;2022-09-03T08:33:45;6.30;;;2.90;;
71671;SDS011;62112;45.638;11.714;2022-09-03T08:36:13;4.95;;;2.85;;
71671;SDS011;62112;45.638;11.714;2022-09-03T08:38:41;5.45;;;2.65;;
71671;SDS011;62112;45.638;11.714;2022-09-03T08:46:20;5.83;;;2.73;;
71671;SDS011;62112;45.638;11.714;2022-09-03T08:48:51;4.68;;;2.50;;
71671;SDS011;62112;45.638;11.714;2022-09-03T08:51:18;4.75;;;2.80;;
71671;SDS011;62112;45.638;11.714;2022-09-03T08:53:51;5.22;;;2.70;;
71671;SDS011;62112;45.638;11.714;2022-09-03T08:56:23;5.40;;;2.83;;
71671;SDS011;62112;45.638;11.714;2022-09-03T08:58:52;5.20;;;2.67;;
71671;SDS011;62112;45.638;11.714;2022-09-03T09:06:54;5.50;;;2.90;;
71671;SDS011;62112;45.638;11.714;2022-09-03T09:09:37;5.47;;;2.85;;
71671;SDS011;62112;45.638;11.714;2022-09-03T09:17:39;6.60;;;2.90;;
71671;SDS011;62112;45.638;11.714;2022-09-03T09:20:27;6.03;;;3.00;;
71671;SDS011;62112;45.638;11.714;2022-09-03T09:23:03;6.65;;;2.80;;
71671;SDS011;62112;45.638;11.714;2022-09-03T09:25:30;5.83;;;2.90;;
71671;SDS011;62112;45.638;11.714;2022-09-03T09:28:15;5.05;;;2.83;;
71671;SDS011;62112;45.638;11.714;2022-09-03T09:30:48;5.32;;;2.50;;
71671;SDS011;62112;45.638;11.714;2022-09-03T09:33:16;5.50;;;2.90;;
71671;SDS011;62112;45.638;11.714;2022-09-03T09:35:44;5.78;;;3.08;;
71671;SDS011;62112;45.638;11.714;2022-09-03T09:38:11;4.97;;;2.83;;
71671;SDS011;62112;45.638;11.714;2022-09-03T09:40:41;6.35;;;2.88;;
71671;SDS011;62112;45.638;11.714;2022-09-03T09:43:10;6.85;;;2.70;;
71671;SDS011;62112;45.638;11.714;2022-09-03T09:45:40;5.95;;;2.83;;
71671;SDS011;62112;45.638;11.714;2022-09-03T09:50:38;4.70;;;2.50;;
71671;SDS011;62112;45.638;11.714;2022-09-03T09:53:06;4.65;;;2.40;;
71671;SDS011;62112;45.638;11.714;2022-09-03T09:55:54;4.45;;;2.50;;
71671;SDS011;62112;45.638;11.714;2022-09-03T09:58:27;5.20;;;2.70;;
71671;SDS011;62112;45.638;11.714;2022-09-03T10:03:39;5.38;;;2.90;;
71671;SDS011;62112;45.638;11.714;2022-09-03T10:06:13;4.30;;;2.55;;
71671;SDS011;62112;45.638;11.714;2022-09-03T10:09:10;5.13;;;2.70;;
71671;SDS011;62112;45.638;11.714;2022-09-03T10:11:44;5.93;;;2.70;;
71671;SDS011;62112;45.638;11.714;2022-09-03T10:17:42;5.63;;;2.40;;
71671;SDS011;62112;45.638;11.714;2022-09-03T10:25:42;6.03;;;2.70;;
71671;SDS011;62112;45.638;11.714;2022-09-03T10:28:33;4.72;;;2.50;;
71671;SDS011;62112;45.638;11.714;2022-09-03T10:39:04;12.97;;;4.77;;
71671;SDS011;62112;45.638;11.714;2022-09-03T10:41:40;13.85;;;5.10;;
71671;SDS011;62112;45.638;11.714;2022-09-03T10:58:28;12.80;;;4.40;;
71671;SDS011;62112;45.638;11.714;2022-09-03T11:01:30;10.48;;;4.20;;
71671;SDS011;62112;45.638;11.714;2022-09-03T11:09:23;10.07;;;3.78;;
71671;SDS011;62112;45.638;11.714;2022-09-03T11:12:08;8.85;;;3.53;;
71671;SDS011;62112;45.638;11.714;2022-09-03T11:14:47;10.10;;;3.67;;
71671;SDS011;62112;45.638;11.714;2022-09-03T11:17:32;8.18;;;3.40;;
71671;SDS011;62112;45.638;11.714;2022-09-03T11:20:13;9.17;;;3.10;;
71671;SDS011;62112;45.638;11.714;2022-09-03T11:22:58;7.18;;;3.17;;
71671;SDS011;62112;45.638;11.714;2022-09-03T11:25:36;8.80;;;3.17;;
71671;SDS011;62112;45.638;11.714;2022-09-03T14:38:26;7.80;;;3.80;;
71671;SDS011;62112;45.638;11.714;2022-09-03T15:01:10;7.18;;;3.58;;
71671;SDS011;62112;45.638;11.714;2022-09-03T15:03:44;17.53;;;5.00;;
71671;SDS011;62112;45.638;11.714;2022-09-03T15:20:06;10.68;;;5.93;;
71671;SDS011;62112;45.638;11.714;2022-09-03T15:26:08;11.45;;;3.22;;
71671;SDS011;62112;45.638;11.714;2022-09-03T15:40:51;11.77;;;3.17;;
71671;SDS011;62112;45.638;11.714;2022-09-03T15:43:25;8.20;;;4.30;;
71671;SDS011;62112;45.638;11.714;2022-09-03T15:45:59;12.03;;;3.63;;
71671;SDS011;62112;45.638;11.714;2022-09-03T15:48:57;34.28;;;17.65;;
71671;SDS011;62112;45.638;11.714;2022-09-03T15:51:31;9.10;;;3.67;;
71671;SDS011;62112;45.638;11.714;2022-09-03T16:09:50;36.13;;;6.10;;
71671;SDS011;62112;45.638;11.714;2022-09-03T16:15:45;24.10;;;4.80;;
71671;SDS011;62112;45.638;11.714;2022-09-03T16:18:38;15.35;;;5.38;;
71671;SDS011;62112;45.638;11.714;2022-09-03T16:21:22;16.73;;;7.45;;
71671;SDS011;62112;45.638;11.714;2022-09-03T16:29:41;10.60;;;5.35;;
71671;SDS011;62112;45.638;11.714;2022-09-03T16:35:42;6.50;;;3.00;;
71671;SDS011;62112;45.638;11.714;2022-09-03T16:52:27;9.35;;;3.10;;
71671;SDS011;62112;45.638;11.714;2022-09-03T16:55:30;9.20;;;2.90;;
71671;SDS011;62112;45.638;11.714;2022-09-03T17:01:18;9.23;;;3.40;;
71671;SDS011;62112;45.638;11.714;2022-09-03T17:09:37;10.33;;;3.80;;
71671;SDS011;62112;45.638;11.714;2022-09-03T17:20:51;9.70;;;4.53;;
71671;SDS011;62112;45.638;11.714;2022-09-03T17:29:11;15.38;;;6.15;;
71671;SDS011;62112;45.638;11.714;2022-09-03T17:37:39;19.53;;;9.60;;
71671;SDS011;62112;45.638;11.714;2022-09-03T17:42:53;9.98;;;4.22;;
71671;SDS011;62112;45.638;11.714;2022-09-03T17:48:28;11.27;;;2.90;;
71671;SDS011;62112;45.638;11.714;2022-09-03T17:54:25;13.98;;;4.93;;
71671;SDS011;62112;45.638;11.714;2022-09-03T17:59:56;7.22;;;3.30;;
71671;SDS011;62112;45.638;11.714;2022-09-03T18:02:34;6.30;;;3.40;;
71671;SDS011;62112;45.638;11.714;2022-09-03T18:05:18;15.07;;;3.53;;
71671;SDS011;62112;45.638;11.714;2022-09-03T18:10:43;8.63;;;3.22;;
71671;SDS011;62112;45.638;11.714;2022-09-03T18:16:30;17.30;;;6.65;;
71671;SDS011;62112;45.638;11.714;2022-09-03T18:18:59;40.87;;;17.27;;
71671;SDS011;62112;45.638;11.714;2022-09-03T18:21:32;25.42;;;8.90;;
71671;SDS011;62112;45.638;11.714;2022-09-03T18:24:34;9.88;;;4.68;;
